createdAt,value
2023-03-11T00:00:33.708Z,100.00
2023-03-11T00:03:01.898Z,100.00
2023-03-11T00:05:31.177Z,100.00
2023-03-11T00:07:58.554Z,100.00
2023-03-11T00:10:34.784Z,100.00
2023-03-11T00:13:02.123Z,100.00
2023-03-11T00:15:29.126Z,100.00
2023-03-11T00:17:55.939Z,100.00
2023-03-11T00:20:31.439Z,100.00
2023-03-11T00:22:58.500Z,100.00
2023-03-11T00:25:27.287Z,100.00
2023-03-11T00:27:53.993Z,100.00
2023-03-11T00:30:21.616Z,100.00
2023-03-11T00:32:51.228Z,100.00
2023-03-11T00:35:21.709Z,100.00
2023-03-11T00:37:48.614Z,100.00
2023-03-11T00:40:18.290Z,100.00
2023-03-11T00:42:45.252Z,100.00
2023-03-11T00:45:12.899Z,100.00
2023-03-11T00:47:39.377Z,100.00
2023-03-11T00:50:07.207Z,100.00
2023-03-11T00:52:33.727Z,100.00
2023-03-11T00:55:00.147Z,100.00
2023-03-11T00:57:29.093Z,100.00
2023-03-11T00:59:56.031Z,100.00
2023-03-11T01:02:22.863Z,100.00
2023-03-11T01:04:54.174Z,100.00
2023-03-11T01:07:20.524Z,100.00
2023-03-11T01:09:46.884Z,100.00
2023-03-11T01:12:13.321Z,100.00
2023-03-11T01:14:40.021Z,100.00
2023-03-11T01:17:06.420Z,100.00
2023-03-11T01:19:32.805Z,100.00
2023-03-11T01:21:59.215Z,100.00
2023-03-11T01:24:25.582Z,100.00
2023-03-11T01:26:51.956Z,100.00
2023-03-11T01:29:18.329Z,100.00
2023-03-11T01:31:44.704Z,100.00
2023-03-11T01:34:12.583Z,100.00
2023-03-11T01:36:38.975Z,100.00
2023-03-11T01:39:05.478Z,100.00
2023-03-11T01:41:31.939Z,100.00
2023-03-11T01:43:58.353Z,100.00
2023-03-11T01:46:36.514Z,100.00
2023-03-11T01:49:04.833Z,100.00
2023-03-11T01:51:40.298Z,100.00
2023-03-11T01:54:11.720Z,100.00
2023-03-11T01:56:39.677Z,100.00
2023-03-11T01:59:08.488Z,100.00
2023-03-11T02:01:41.791Z,100.00
2023-03-11T02:04:08.560Z,100.00
2023-03-11T02:06:35.493Z,100.00
2023-03-11T02:09:01.996Z,100.00
2023-03-11T02:11:30.729Z,100.00
2023-03-11T02:14:03.290Z,100.00
2023-03-11T02:16:29.793Z,100.00
2023-03-11T02:19:00.492Z,100.00
2023-03-11T02:21:30.004Z,100.00
2023-03-11T02:24:15.925Z,100.00
2023-03-11T02:27:02.753Z,100.00
2023-03-11T02:29:30.228Z,100.00
2023-03-11T02:31:58.491Z,100.00
2023-03-11T02:34:27.503Z,100.00
2023-03-11T02:36:54.013Z,100.00
2023-03-11T02:39:38.661Z,100.00
2023-03-11T02:42:13.857Z,100.00
2023-03-11T02:44:42.596Z,100.00
2023-03-11T02:47:09.247Z,100.00
2023-03-11T02:49:36.611Z,100.00
2023-03-11T02:52:03.565Z,100.00
2023-03-11T02:54:30.135Z,100.00
2023-03-11T02:56:56.565Z,100.00
2023-03-11T02:59:23.041Z,100.00
2023-03-11T03:01:49.410Z,100.00
2023-03-11T03:04:15.882Z,100.00
2023-03-11T03:06:42.268Z,100.00
2023-03-11T03:09:08.661Z,100.00
2023-03-11T03:11:35.040Z,100.00
2023-03-11T03:14:01.400Z,100.00
2023-03-11T03:16:27.824Z,100.00
2023-03-11T03:18:54.324Z,100.00
2023-03-11T03:21:20.731Z,100.00
2023-03-11T03:23:47.171Z,100.00
2023-03-11T03:26:14.442Z,100.00
2023-03-11T03:28:40.810Z,100.00
2023-03-11T03:31:09.128Z,100.00
2023-03-11T03:33:35.924Z,100.00
2023-03-11T03:36:07.349Z,100.00
2023-03-11T03:38:33.749Z,100.00
2023-03-11T03:41:00.134Z,100.00
2023-03-11T03:43:26.511Z,100.00
2023-03-11T03:46:00.969Z,100.00
2023-03-11T03:48:27.965Z,100.00
2023-03-11T03:50:54.392Z,100.00
2023-03-11T03:53:20.868Z,100.00
2023-03-11T03:55:47.469Z,100.00
2023-03-11T03:58:13.933Z,100.00
2023-03-11T04:00:40.337Z,100.00
2023-03-11T04:03:07.029Z,100.00
2023-03-11T04:05:33.575Z,100.00
2023-03-11T04:08:00.645Z,100.00
2023-03-11T04:10:27.150Z,100.00
2023-03-11T04:12:53.513Z,100.00
2023-03-11T04:15:19.892Z,100.00
2023-03-11T04:17:46.260Z,100.00
2023-03-11T04:20:12.748Z,100.00
2023-03-11T04:22:39.138Z,100.00
2023-03-11T04:25:05.946Z,100.00
2023-03-11T04:27:32.315Z,100.00
2023-03-11T04:29:58.705Z,100.00
2023-03-11T04:32:25.077Z,100.00
2023-03-11T04:34:51.578Z,100.00
2023-03-11T04:37:17.963Z,100.00
2023-03-11T04:39:44.309Z,100.00
2023-03-11T04:42:10.736Z,100.00
2023-03-11T04:44:37.230Z,100.00
2023-03-11T04:47:03.671Z,100.00
2023-03-11T04:49:30.036Z,100.00
2023-03-11T04:51:56.450Z,100.00
2023-03-11T04:54:22.830Z,100.00
2023-03-11T04:56:49.216Z,100.00
2023-03-11T04:59:15.605Z,100.00
2023-03-11T05:01:42.025Z,100.00
2023-03-11T05:04:08.552Z,100.00
2023-03-11T05:06:35.030Z,100.00
2023-03-11T05:09:01.433Z,100.00
2023-03-11T05:11:27.801Z,100.00
2023-03-11T05:13:54.244Z,100.00
2023-03-11T05:16:20.615Z,100.00
2023-03-11T05:18:47.031Z,100.00
2023-03-11T05:21:13.780Z,100.00
2023-03-11T05:23:40.156Z,100.00
2023-03-11T05:26:06.559Z,100.00
2023-03-11T05:28:32.965Z,100.00
2023-03-11T05:30:59.421Z,100.00
2023-03-11T05:33:25.880Z,100.00
2023-03-11T05:35:52.305Z,100.00
2023-03-11T05:38:18.756Z,100.00
2023-03-11T05:40:45.141Z,100.00
2023-03-11T05:43:11.719Z,100.00
2023-03-11T05:45:38.080Z,100.00
2023-03-11T05:48:04.535Z,100.00
2023-03-11T05:50:30.999Z,100.00
2023-03-11T05:52:57.434Z,100.00
2023-03-11T05:55:23.831Z,100.00
2023-03-11T05:57:54.605Z,100.00
2023-03-11T06:00:21.508Z,100.00
2023-03-11T06:02:48.103Z,100.00
2023-03-11T06:05:14.931Z,100.00
2023-03-11T06:07:41.398Z,100.00
2023-03-11T06:10:08.369Z,100.00
2023-03-11T06:12:35.292Z,100.00
2023-03-11T06:15:01.814Z,100.00
2023-03-11T06:17:30.266Z,100.00
2023-03-11T06:19:56.974Z,100.00
2023-03-11T06:22:23.358Z,100.00
2023-03-11T06:24:49.782Z,100.00
2023-03-11T06:27:16.221Z,100.00
2023-03-11T06:29:42.601Z,100.00
2023-03-11T06:32:08.966Z,100.00
2023-03-11T06:34:35.487Z,100.00
2023-03-11T06:37:01.877Z,100.00
2023-03-11T06:39:28.331Z,100.00
2023-03-11T06:41:54.741Z,100.00
2023-03-11T06:44:21.159Z,100.00
2023-03-11T06:46:47.518Z,100.00
2023-03-11T06:49:13.904Z,100.00
2023-03-11T06:51:40.341Z,100.00
2023-03-11T06:54:07.110Z,100.00
2023-03-11T06:56:33.530Z,100.00
2023-03-11T06:58:59.881Z,100.00
2023-03-11T07:01:28.097Z,100.00
2023-03-11T07:03:54.617Z,100.00
2023-03-11T07:06:26.441Z,100.00
2023-03-11T07:08:53.693Z,100.00
2023-03-11T07:11:22.650Z,100.00
2023-03-11T07:13:49.107Z,100.00
2023-03-11T07:16:22.073Z,100.00
2023-03-11T07:18:49.869Z,100.00
2023-03-11T07:21:18.942Z,100.00
2023-03-11T07:23:45.785Z,100.00
2023-03-11T07:26:14.670Z,100.00
2023-03-11T07:28:41.817Z,100.00
2023-03-11T07:31:15.087Z,100.00
2023-03-11T07:33:41.852Z,100.00
2023-03-11T07:36:20.569Z,100.00
2023-03-11T07:38:47.738Z,100.00
2023-03-11T07:41:15.289Z,100.00
2023-03-11T07:43:42.822Z,100.00
2023-03-11T07:46:18.724Z,100.00
2023-03-11T07:48:45.865Z,100.00
2023-03-11T07:51:14.113Z,100.00
2023-03-11T07:53:41.002Z,100.00
2023-03-11T07:56:09.250Z,100.00
2023-03-11T07:58:35.983Z,100.00
2023-03-11T08:01:16.327Z,100.00
2023-03-11T08:03:45.069Z,100.00
2023-03-11T08:06:16.857Z,100.00
2023-03-11T08:08:43.512Z,100.00
2023-03-11T08:11:10.802Z,100.00
2023-03-11T08:13:37.173Z,100.00
2023-03-11T08:16:05.087Z,100.00
2023-03-11T08:18:32.103Z,99.49
2023-03-11T08:20:58.956Z,96.21
2023-03-11T08:23:25.380Z,100.00
2023-03-11T08:25:51.757Z,100.00
2023-03-11T08:28:18.161Z,96.50
2023-03-11T08:30:44.550Z,96.78
2023-03-11T08:33:10.940Z,95.32
2023-03-11T08:35:37.803Z,95.94
2023-03-11T08:38:04.445Z,93.76
2023-03-11T08:40:30.847Z,94.04
2023-03-11T08:42:57.677Z,93.11
2023-03-11T08:45:24.136Z,91.87
2023-03-11T08:47:50.734Z,90.95
2023-03-11T08:50:19.873Z,90.58
2023-03-11T08:52:46.518Z,91.98
2023-03-11T08:55:16.564Z,94.07
2023-03-11T08:57:43.098Z,94.33
2023-03-11T09:00:13.089Z,95.84
2023-03-11T09:02:41.429Z,93.73
2023-03-11T09:05:08.149Z,93.40
2023-03-11T09:07:34.522Z,94.45
2023-03-11T09:10:00.892Z,94.33
2023-03-11T09:12:28.036Z,93.16
2023-03-11T09:14:56.126Z,92.33
2023-03-11T09:17:22.706Z,92.99
2023-03-11T09:19:49.114Z,92.78
2023-03-11T09:22:15.992Z,90.62
2023-03-11T09:24:42.378Z,92.05
2023-03-11T09:27:10.698Z,93.35
2023-03-11T09:29:37.109Z,95.23
2023-03-11T09:32:03.636Z,95.45
2023-03-11T09:34:30.058Z,95.46
2023-03-11T09:36:56.419Z,96.35
2023-03-11T09:39:23.015Z,95.36
2023-03-11T09:41:58.280Z,94.68
2023-03-11T09:44:38.670Z,95.18
2023-03-11T09:47:26.223Z,93.48
2023-03-11T09:50:18.906Z,94.13
2023-03-11T09:53:08.577Z,93.01
2023-03-11T09:55:53.094Z,95.29
2023-03-11T09:58:35.862Z,95.94
2023-03-11T10:01:10.345Z,95.55
2023-03-11T10:03:39.385Z,95.27
2023-03-11T10:06:28.557Z,97.00
2023-03-11T10:09:14.897Z,95.64
2023-03-11T10:12:17.790Z,97.24
2023-03-11T10:15:02.458Z,95.07
2023-03-11T10:17:50.300Z,92.93
2023-03-11T10:20:59.563Z,94.95
2023-03-11T10:23:46.874Z,95.50
2023-03-11T10:27:02.536Z,97.51
2023-03-11T10:29:58.260Z,96.57
2023-03-11T10:32:50.618Z,96.63
2023-03-11T10:35:21.847Z,95.57
2023-03-11T10:38:03.348Z,94.68
2023-03-11T10:40:35.818Z,95.12
2023-03-11T10:43:05.937Z,95.04
2023-03-11T10:45:38.348Z,96.33
2023-03-11T10:48:10.492Z,93.06
2023-03-11T10:50:37.928Z,93.21
2023-03-11T10:53:10.299Z,92.40
2023-03-11T10:55:46.406Z,94.13
2023-03-11T10:58:15.591Z,92.40
2023-03-11T11:00:42.011Z,94.73
2023-03-11T11:03:23.674Z,91.07
2023-03-11T11:06:01.887Z,92.97
2023-03-11T11:08:28.760Z,93.00
2023-03-11T11:10:57.825Z,93.18
2023-03-11T11:13:34.551Z,92.81
2023-03-11T11:16:16.120Z,93.40
2023-03-11T11:18:49.214Z,97.34
2023-03-11T11:21:37.304Z,98.10
2023-03-11T11:24:17.650Z,95.77
2023-03-11T11:27:03.748Z,98.99
2023-03-11T11:29:30.253Z,100.00
2023-03-11T11:32:19.542Z,97.76
2023-03-11T11:34:55.130Z,99.24
2023-03-11T11:37:22.854Z,96.68
2023-03-11T11:39:56.695Z,98.69
2023-03-11T11:42:25.203Z,100.00
2023-03-11T11:44:56.819Z,95.14
2023-03-11T11:47:34.817Z,94.38
2023-03-11T11:50:05.132Z,96.49
2023-03-11T11:52:36.393Z,96.11
2023-03-11T11:55:20.665Z,95.08
2023-03-11T11:57:47.796Z,95.74
2023-03-11T12:00:20.987Z,94.03
2023-03-11T12:03:32.219Z,93.76
2023-03-11T12:06:01.949Z,92.52
2023-03-11T12:08:47.302Z,97.72
2023-03-11T12:11:23.826Z,94.22
2023-03-11T12:14:07.052Z,93.96
2023-03-11T12:16:40.389Z,92.71
2023-03-11T12:19:10.215Z,94.47
2023-03-11T12:21:45.727Z,95.39
2023-03-11T12:24:23.033Z,94.46
2023-03-11T12:26:53.326Z,92.84
2023-03-11T12:29:32.436Z,95.99
2023-03-11T12:32:01.526Z,95.15
2023-03-11T12:34:29.283Z,94.01
2023-03-11T12:37:00.103Z,90.59
2023-03-11T12:39:34.348Z,94.99
2023-03-11T12:42:19.070Z,95.17
2023-03-11T12:44:46.352Z,91.21
2023-03-11T12:47:25.201Z,92.96
2023-03-11T12:49:55.045Z,96.33
2023-03-11T12:52:22.246Z,94.69
2023-03-11T12:55:17.677Z,91.22
2023-03-11T12:57:46.988Z,91.07
2023-03-11T13:00:51.121Z,89.55
2023-03-11T13:03:51.210Z,90.94
2023-03-11T13:06:40.412Z,92.90
2023-03-11T13:09:14.482Z,93.49
2023-03-11T13:11:48.427Z,92.73
2023-03-11T13:14:14.873Z,92.41
2023-03-11T13:16:43.305Z,91.50
2023-03-11T13:19:35.113Z,92.83
2023-03-11T13:22:04.165Z,87.40
2023-03-11T13:24:30.456Z,90.19
2023-03-11T13:27:00.458Z,90.84
2023-03-11T13:29:36.621Z,90.56
2023-03-11T13:32:24.844Z,90.98
2023-03-11T13:35:09.997Z,88.74
2023-03-11T13:37:51.592Z,89.65
2023-03-11T13:40:38.368Z,91.97
2023-03-11T13:43:25.014Z,90.83
2023-03-11T13:45:57.541Z,89.92
2023-03-11T13:48:41.998Z,91.53
2023-03-11T13:51:16.297Z,90.81
2023-03-11T13:53:47.806Z,92.60
2023-03-11T13:56:21.347Z,93.11
2023-03-11T13:58:47.728Z,90.23
2023-03-11T14:01:16.765Z,93.16
2023-03-11T14:03:44.627Z,94.57
2023-03-11T14:06:19.433Z,92.16
2023-03-11T14:08:57.203Z,91.39
2023-03-11T14:11:29.224Z,91.43
2023-03-11T14:13:55.687Z,96.46
2023-03-11T14:16:36.267Z,96.77
2023-03-11T14:19:08.566Z,94.90
2023-03-11T14:21:35.388Z,93.47
2023-03-11T14:24:03.162Z,94.84
2023-03-11T14:26:32.181Z,92.54
2023-03-11T14:29:00.994Z,94.77
2023-03-11T14:31:30.435Z,96.32
2023-03-11T14:34:07.133Z,95.74
2023-03-11T14:36:45.355Z,94.48
2023-03-11T14:39:39.198Z,95.33
2023-03-11T14:42:08.479Z,97.04
2023-03-11T14:44:40.296Z,96.34
2023-03-11T14:47:24.444Z,98.45
2023-03-11T14:49:52.944Z,97.84
2023-03-11T14:52:43.959Z,95.17
2023-03-11T14:55:23.320Z,96.04
2023-03-11T14:57:55.503Z,98.08
2023-03-11T15:00:27.672Z,96.34
2023-03-11T15:03:19.101Z,95.86
2023-03-11T15:05:52.633Z,96.71
2023-03-11T15:08:22.550Z,98.46
2023-03-11T15:11:25.350Z,98.88
2023-03-11T15:13:53.034Z,100.00
2023-03-11T15:16:25.571Z,100.00
2023-03-11T15:18:54.275Z,100.00
2023-03-11T15:21:23.804Z,99.08
2023-03-11T15:24:06.594Z,97.85
2023-03-11T15:26:35.755Z,96.37
2023-03-11T15:29:15.424Z,98.04
2023-03-11T15:31:44.853Z,97.21
2023-03-11T15:34:22.091Z,96.67
2023-03-11T15:36:48.422Z,98.55
2023-03-11T15:39:30.100Z,98.53
2023-03-11T15:42:10.948Z,100.00
2023-03-11T15:44:42.914Z,100.00
2023-03-11T15:47:14.609Z,100.00
2023-03-11T15:49:41.465Z,100.00
2023-03-11T15:52:08.659Z,100.00
2023-03-11T15:54:35.096Z,100.00
2023-03-11T15:57:05.932Z,100.00
2023-03-11T15:59:33.995Z,100.00
2023-03-11T16:02:00.503Z,100.00
2023-03-11T16:04:27.340Z,100.00
2023-03-11T16:07:06.990Z,100.00
2023-03-11T16:09:34.230Z,100.00
2023-03-11T16:12:01.810Z,100.00
2023-03-11T16:14:28.168Z,100.00
2023-03-11T16:16:54.537Z,100.00
2023-03-11T16:19:20.920Z,100.00
2023-03-11T16:21:50.188Z,100.00
2023-03-11T16:24:21.007Z,100.00
2023-03-11T16:26:47.784Z,100.00
2023-03-11T16:29:19.414Z,100.00
2023-03-11T16:31:46.795Z,100.00
2023-03-11T16:34:13.229Z,100.00
2023-03-11T16:36:39.664Z,100.00
2023-03-11T16:39:06.203Z,100.00
2023-03-11T16:41:50.756Z,100.00
2023-03-11T16:44:17.152Z,100.00
2023-03-11T16:46:43.594Z,100.00
2023-03-11T16:49:10.032Z,100.00
2023-03-11T16:51:36.472Z,100.00
2023-03-11T16:54:02.843Z,100.00
2023-03-11T16:56:29.247Z,100.00
2023-03-11T16:58:56.754Z,100.00
2023-03-11T17:01:23.389Z,100.00
2023-03-11T17:03:51.856Z,100.00
2023-03-11T17:06:20.022Z,100.00
2023-03-11T17:08:49.388Z,100.00
2023-03-11T17:11:21.870Z,100.00
2023-03-11T17:13:50.049Z,100.00
2023-03-11T17:16:16.622Z,100.00
2023-03-11T17:18:43.185Z,100.00
2023-03-11T17:21:12.587Z,100.00
2023-03-11T17:23:39.192Z,100.00
2023-03-11T17:26:11.284Z,100.00
2023-03-11T17:28:39.934Z,100.00
2023-03-11T17:31:11.151Z,100.00
2023-03-11T17:33:37.543Z,100.00
2023-03-11T17:36:06.354Z,100.00
2023-03-11T17:38:33.054Z,100.00
2023-03-11T17:40:59.585Z,100.00
2023-03-11T17:43:26.035Z,100.00
2023-03-11T17:45:53.680Z,100.00
2023-03-11T17:48:21.266Z,100.00
2023-03-11T17:50:47.658Z,100.00
2023-03-11T17:53:14.014Z,100.00
2023-03-11T17:55:40.792Z,100.00
2023-03-11T17:58:07.994Z,100.00
2023-03-11T18:00:34.401Z,100.00
2023-03-11T18:03:00.827Z,100.00
2023-03-11T18:05:27.265Z,100.00
2023-03-11T18:07:53.640Z,100.00
2023-03-11T18:10:20.379Z,100.00
2023-03-11T18:12:47.466Z,100.00
2023-03-11T18:15:18.893Z,100.00
2023-03-11T18:17:46.641Z,100.00
2023-03-11T18:20:14.546Z,100.00
2023-03-11T18:22:46.128Z,100.00
2023-03-11T18:25:13.811Z,100.00
2023-03-11T18:27:40.245Z,100.00
2023-03-11T18:30:08.118Z,100.00
2023-03-11T18:32:34.518Z,100.00
2023-03-11T18:35:00.906Z,100.00
2023-03-11T18:37:27.300Z,100.00
2023-03-11T18:39:53.660Z,100.00
2023-03-11T18:42:20.044Z,100.00
2023-03-11T18:44:46.655Z,100.00
2023-03-11T18:47:13.013Z,100.00
2023-03-11T18:49:40.406Z,100.00
2023-03-11T18:52:06.851Z,100.00
2023-03-11T18:54:33.258Z,100.00
2023-03-11T18:56:59.619Z,100.00
2023-03-11T18:59:27.541Z,100.00
2023-03-11T19:01:54.086Z,100.00
2023-03-11T19:04:20.613Z,100.00
2023-03-11T19:06:47.457Z,100.00
2023-03-11T19:09:14.083Z,100.00
2023-03-11T19:11:40.456Z,100.00
2023-03-11T19:14:06.829Z,100.00
2023-03-11T19:16:33.290Z,100.00
2023-03-11T19:19:00.316Z,100.00
2023-03-11T19:21:27.545Z,100.00
2023-03-11T19:23:55.328Z,100.00
2023-03-11T19:26:33.838Z,100.00
2023-03-11T19:29:08.694Z,100.00
2023-03-11T19:31:35.223Z,100.00
2023-03-11T19:34:01.856Z,100.00
2023-03-11T19:36:28.339Z,100.00
2023-03-11T19:38:54.678Z,100.00
2023-03-11T19:41:22.963Z,100.00
2023-03-11T19:43:52.437Z,100.00
2023-03-11T19:46:21.550Z,100.00
2023-03-11T19:48:48.079Z,100.00
2023-03-11T19:51:15.006Z,100.00
2023-03-11T19:53:41.737Z,100.00
2023-03-11T19:56:09.474Z,100.00
2023-03-11T19:58:36.606Z,100.00
2023-03-11T20:01:03.420Z,100.00
2023-03-11T20:03:30.015Z,100.00
2023-03-11T20:05:57.925Z,100.00
2023-03-11T20:08:26.016Z,100.00
2023-03-11T20:10:53.481Z,100.00
2023-03-11T20:13:22.158Z,100.00
2023-03-11T20:15:48.842Z,100.00
2023-03-11T20:18:15.606Z,100.00
2023-03-11T20:20:43.251Z,100.00
2023-03-11T20:23:10.068Z,100.00
2023-03-11T20:25:40.986Z,100.00
2023-03-11T20:28:07.569Z,100.00
2023-03-11T20:30:34.241Z,100.00
2023-03-11T20:33:00.783Z,100.00
2023-03-11T20:35:27.454Z,100.00
2023-03-11T20:37:53.933Z,100.00
2023-03-11T20:40:22.011Z,100.00
2023-03-11T20:42:48.505Z,100.00
2023-03-11T20:45:17.459Z,100.00
2023-03-11T20:47:44.379Z,100.00
2023-03-11T20:50:12.477Z,100.00
2023-03-11T20:52:39.582Z,100.00
2023-03-11T20:55:08.319Z,100.00
2023-03-11T20:57:36.865Z,100.00
2023-03-11T21:00:08.177Z,100.00
2023-03-11T21:02:34.917Z,100.00
2023-03-11T21:05:01.663Z,100.00
2023-03-11T21:07:28.114Z,100.00
2023-03-11T21:09:54.977Z,100.00
2023-03-11T21:12:21.877Z,100.00
2023-03-11T21:14:48.471Z,100.00
2023-03-11T21:17:15.381Z,100.00
2023-03-11T21:19:42.052Z,100.00
2023-03-11T21:22:08.469Z,100.00
2023-03-11T21:24:34.887Z,100.00
2023-03-11T21:27:01.699Z,100.00
2023-03-11T21:29:30.605Z,100.00
2023-03-11T21:31:58.540Z,100.00
2023-03-11T21:34:25.172Z,100.00
2023-03-11T21:36:51.552Z,100.00
2023-03-11T21:39:18.072Z,100.00
2023-03-11T21:41:44.552Z,100.00
2023-03-11T21:44:11.054Z,100.00
2023-03-11T21:46:37.594Z,100.00
2023-03-11T21:49:04.115Z,100.00
2023-03-11T21:51:30.599Z,100.00
2023-03-11T21:53:57.322Z,100.00
2023-03-11T21:56:23.848Z,100.00
2023-03-11T21:58:50.312Z,100.00
2023-03-11T22:01:16.923Z,100.00
2023-03-11T22:03:43.800Z,100.00
2023-03-11T22:06:11.911Z,100.00
2023-03-11T22:08:38.911Z,100.00
2023-03-11T22:11:13.874Z,100.00
2023-03-11T22:13:40.374Z,100.00
2023-03-11T22:16:07.368Z,100.00
2023-03-11T22:18:34.246Z,100.00
2023-03-11T22:21:01.034Z,100.00
2023-03-11T22:23:27.855Z,100.00
2023-03-11T22:25:54.460Z,100.00
2023-03-11T22:28:20.834Z,100.00
2023-03-11T22:30:47.199Z,100.00
2023-03-11T22:33:13.792Z,100.00
2023-03-11T22:35:40.254Z,100.00
2023-03-11T22:38:07.001Z,100.00
2023-03-11T22:40:35.067Z,100.00
2023-03-11T22:43:01.632Z,100.00
2023-03-11T22:45:27.992Z,100.00
2023-03-11T22:47:54.836Z,100.00
2023-03-11T22:50:21.729Z,100.00
2023-03-11T22:52:48.229Z,100.00
2023-03-11T22:55:14.702Z,100.00
2023-03-11T22:57:41.059Z,100.00
2023-03-11T23:00:17.170Z,100.00
2023-03-11T23:02:48.473Z,100.00
2023-03-11T23:05:15.960Z,100.00
2023-03-11T23:07:42.855Z,100.00
2023-03-11T23:10:11.845Z,100.00
2023-03-11T23:12:38.687Z,100.00
2023-03-11T23:15:17.607Z,100.00
2023-03-11T23:17:44.314Z,100.00
2023-03-11T23:20:14.526Z,100.00
2023-03-11T23:22:42.169Z,100.00
2023-03-11T23:25:12.495Z,100.00
2023-03-11T23:27:38.949Z,100.00
2023-03-11T23:30:06.162Z,100.00
2023-03-11T23:32:32.610Z,100.00
2023-03-11T23:34:59.088Z,100.00
2023-03-11T23:37:25.475Z,100.00
2023-03-11T23:39:51.859Z,100.00
2023-03-11T23:42:25.335Z,100.00
2023-03-11T23:44:52.413Z,100.00
2023-03-11T23:47:18.920Z,100.00
2023-03-11T23:49:45.289Z,100.00
2023-03-11T23:52:11.740Z,100.00
2023-03-11T23:54:38.134Z,100.00
2023-03-11T23:57:04.527Z,100.00
2023-03-11T23:59:31.004Z,100.00
